createdAt,value
2022-10-17T00:01:22.840Z,6.68
2022-10-17T00:03:49.226Z,8.27
2022-10-17T00:06:15.970Z,6.88
2022-10-17T00:08:43.487Z,6.50
2022-10-17T00:11:15.842Z,6.10
2022-10-17T00:13:42.492Z,5.35
2022-10-17T00:16:10.324Z,4.25
2022-10-17T00:18:36.769Z,7.07
2022-10-17T00:21:03.367Z,6.45
2022-10-17T00:23:30.457Z,5.22
2022-10-17T00:26:01.778Z,7.43
2022-10-17T00:28:28.347Z,5.78
2022-10-17T00:31:03.927Z,8.13
2022-10-17T00:33:31.449Z,6.38
2022-10-17T00:36:13.381Z,6.28
2022-10-17T00:38:41.971Z,6.32
2022-10-17T00:41:09.525Z,5.55
2022-10-17T00:44:03.756Z,7.00
2022-10-17T00:46:41.190Z,5.57
2022-10-17T00:49:10.857Z,5.05
2022-10-17T00:51:42.916Z,5.57
2022-10-17T00:54:11.574Z,5.90
2022-10-17T00:56:40.397Z,5.95
2022-10-17T00:59:12.267Z,8.07
2022-10-17T01:01:41.087Z,5.63
2022-10-17T01:04:07.908Z,7.20
2022-10-17T01:06:34.291Z,8.23
2022-10-17T01:09:00.860Z,5.90
2022-10-17T01:12:00.974Z,5.57
2022-10-17T01:14:30.594Z,8.52
2022-10-17T01:17:16.253Z,7.07
2022-10-17T01:20:15.874Z,7.93
2022-10-17T01:23:17.869Z,6.95
2022-10-17T01:26:19.808Z,8.82
2022-10-17T01:29:07.975Z,9.00
2022-10-17T01:31:46.228Z,7.15
2022-10-17T01:34:28.429Z,6.00
2022-10-17T01:37:06.802Z,13.15
2022-10-17T01:39:39.518Z,6.55
2022-10-17T01:42:17.582Z,7.35
2022-10-17T01:44:59.717Z,5.93
2022-10-17T01:47:30.997Z,6.70
2022-10-17T01:50:04.207Z,6.70
2022-10-17T01:52:38.997Z,8.10
2022-10-17T01:55:13.218Z,8.68
2022-10-17T01:57:45.125Z,6.87
2022-10-17T02:00:16.946Z,7.90
2022-10-17T02:02:46.482Z,5.82
2022-10-17T02:05:12.922Z,8.30
2022-10-17T02:07:41.804Z,6.97
2022-10-17T02:10:35.651Z,9.30
2022-10-17T02:13:24.376Z,8.00
2022-10-17T02:16:09.835Z,8.38
2022-10-17T02:18:53.395Z,10.07
2022-10-17T02:21:37.829Z,8.10
2022-10-17T02:24:36.048Z,8.88
2022-10-17T02:27:31.550Z,10.07
2022-10-17T02:30:29.486Z,7.20
2022-10-17T02:33:01.883Z,10.20
2022-10-17T02:35:32.994Z,8.23
2022-10-17T02:38:00.750Z,8.70
2022-10-17T02:40:30.663Z,10.00
2022-10-17T02:42:59.258Z,8.88
2022-10-17T02:45:28.275Z,8.82
2022-10-17T02:48:24.127Z,12.05
2022-10-17T02:51:12.443Z,9.55
2022-10-17T02:54:09.857Z,7.75
2022-10-17T02:56:44.055Z,9.73
2022-10-17T02:59:14.132Z,8.05
2022-10-17T03:01:41.182Z,8.52
2022-10-17T03:04:09.954Z,9.05
2022-10-17T03:06:36.620Z,8.65
2022-10-17T03:09:03.868Z,10.73
2022-10-17T03:11:30.463Z,10.50
2022-10-17T03:13:56.857Z,10.38
2022-10-17T03:16:23.202Z,8.73
2022-10-17T03:18:50.294Z,9.38
2022-10-17T03:21:17.355Z,8.70
2022-10-17T03:23:43.781Z,11.70
2022-10-17T03:26:10.623Z,13.13
2022-10-17T03:28:37.287Z,10.40
2022-10-17T03:31:18.032Z,9.25
2022-10-17T03:33:44.402Z,9.45
2022-10-17T03:36:14.077Z,12.68
2022-10-17T03:38:40.888Z,9.25
2022-10-17T03:41:07.625Z,8.52
2022-10-17T03:43:34.158Z,9.40
2022-10-17T03:46:01.423Z,11.45
2022-10-17T03:48:29.812Z,7.85
2022-10-17T03:51:06.667Z,8.40
2022-10-17T03:53:33.518Z,10.10
2022-10-17T03:56:15.440Z,9.00
2022-10-17T03:58:42.612Z,12.40
2022-10-17T04:01:11.315Z,10.00
2022-10-17T04:03:38.137Z,10.13
2022-10-17T04:06:05.150Z,9.18
2022-10-17T04:08:31.709Z,8.70
2022-10-17T04:11:02.436Z,9.40
2022-10-17T04:13:29.456Z,9.15
2022-10-17T04:16:03.134Z,9.38
2022-10-17T04:18:29.620Z,10.38
2022-10-17T04:20:56.129Z,8.20
2022-10-17T04:23:22.919Z,9.35
2022-10-17T04:25:49.594Z,9.65
2022-10-17T04:28:15.950Z,7.40
2022-10-17T04:30:45.091Z,9.18
2022-10-17T04:33:12.108Z,9.67
2022-10-17T04:35:38.422Z,7.82
2022-10-17T04:38:04.823Z,7.43
2022-10-17T04:40:31.283Z,10.52
2022-10-17T04:42:57.606Z,9.57
2022-10-17T04:45:23.931Z,8.33
2022-10-17T04:47:50.289Z,8.85
2022-10-17T04:50:16.782Z,8.32
2022-10-17T04:52:43.146Z,8.25
2022-10-17T04:55:09.464Z,10.13
2022-10-17T04:57:37.382Z,8.87
2022-10-17T05:00:04.694Z,9.85
2022-10-17T05:02:31.379Z,10.13
2022-10-17T05:04:57.974Z,9.68
2022-10-17T05:07:24.275Z,10.65
2022-10-17T05:09:50.637Z,10.10
2022-10-17T05:12:17.133Z,10.27
2022-10-17T05:14:43.617Z,7.95
2022-10-17T05:17:10.046Z,9.38
2022-10-17T05:19:36.397Z,10.63
2022-10-17T05:22:02.754Z,8.97
2022-10-17T05:24:29.136Z,9.48
2022-10-17T05:26:55.639Z,8.85
2022-10-17T05:29:22.228Z,12.18
2022-10-17T05:31:48.601Z,10.55
2022-10-17T05:34:15.014Z,8.90
2022-10-17T05:36:41.364Z,9.13
2022-10-17T05:39:08.727Z,7.47
2022-10-17T05:41:35.242Z,9.43
2022-10-17T05:44:04.663Z,9.05
2022-10-17T05:46:32.210Z,10.77
2022-10-17T05:48:58.672Z,9.95
2022-10-17T05:51:25.004Z,8.65
2022-10-17T05:53:51.408Z,9.18
2022-10-17T05:56:20.236Z,8.27
2022-10-17T05:58:53.203Z,10.80
2022-10-17T06:01:21.469Z,7.63
2022-10-17T06:03:47.902Z,9.90
2022-10-17T06:06:15.220Z,7.35
2022-10-17T06:08:41.791Z,8.75
2022-10-17T06:11:10.200Z,8.63
2022-10-17T06:13:37.858Z,10.18
2022-10-17T06:16:04.518Z,9.70
2022-10-17T06:18:31.089Z,10.32
2022-10-17T06:21:10.930Z,11.30
2022-10-17T06:23:37.639Z,7.77
2022-10-17T06:26:05.808Z,9.52
2022-10-17T06:28:32.819Z,8.38
2022-10-17T06:30:59.325Z,9.65
2022-10-17T06:33:25.891Z,8.93
2022-10-17T06:35:56.195Z,8.97
2022-10-17T06:38:23.031Z,9.68
2022-10-17T06:40:49.608Z,10.80
2022-10-17T06:43:15.960Z,9.30
2022-10-17T06:45:42.321Z,8.18
2022-10-17T06:48:09.342Z,8.73
2022-10-17T06:50:35.708Z,9.27
2022-10-17T06:53:02.121Z,8.23
2022-10-17T06:55:28.563Z,9.43
2022-10-17T06:57:56.111Z,9.93
2022-10-17T07:00:23.372Z,10.20
2022-10-17T07:02:50.081Z,10.77
2022-10-17T07:05:17.242Z,9.20
2022-10-17T07:07:44.829Z,11.32
2022-10-17T07:10:12.878Z,9.15
2022-10-17T07:12:39.344Z,6.83
2022-10-17T07:15:06.079Z,10.80
2022-10-17T07:17:32.665Z,8.85
2022-10-17T07:19:59.145Z,8.18
2022-10-17T07:22:25.658Z,9.95
2022-10-17T07:24:52.123Z,8.57
2022-10-17T07:27:18.681Z,7.63
2022-10-17T07:29:45.061Z,8.02
2022-10-17T07:32:11.435Z,9.88
2022-10-17T07:34:37.922Z,8.73
2022-10-17T07:37:06.826Z,15.60
2022-10-17T07:39:35.525Z,9.77
2022-10-17T07:42:01.978Z,12.15
2022-10-17T07:44:28.723Z,10.50
2022-10-17T07:46:55.252Z,9.23
2022-10-17T07:49:21.607Z,8.60
2022-10-17T07:51:48.366Z,10.77
2022-10-17T07:54:15.006Z,6.75
2022-10-17T07:56:41.474Z,10.52
2022-10-17T07:59:09.411Z,7.38
2022-10-17T08:01:36.854Z,9.00
2022-10-17T08:04:03.379Z,10.15
2022-10-17T08:06:29.786Z,9.20
2022-10-17T08:08:57.787Z,11.52
2022-10-17T08:11:25.374Z,8.90
2022-10-17T08:13:52.068Z,7.33
2022-10-17T08:16:18.478Z,7.20
2022-10-17T08:18:45.025Z,9.00
2022-10-17T08:21:13.250Z,6.65
2022-10-17T08:23:40.021Z,7.47
2022-10-17T08:26:10.348Z,8.83
2022-10-17T08:28:38.629Z,9.25
2022-10-17T08:31:10.480Z,8.70
2022-10-17T08:33:37.459Z,10.93
2022-10-17T08:36:05.641Z,9.18
2022-10-17T08:38:35.376Z,8.57
2022-10-17T08:41:39.015Z,10.35
2022-10-17T08:44:20.413Z,10.55
2022-10-17T08:46:50.024Z,9.02
2022-10-17T08:49:25.913Z,8.65
2022-10-17T08:52:02.813Z,11.00
2022-10-17T08:54:41.935Z,10.27
2022-10-17T08:57:18.041Z,6.50
2022-10-17T08:59:50.184Z,10.60
2022-10-17T09:02:37.020Z,6.82
2022-10-17T09:05:34.813Z,9.07
2022-10-17T09:08:22.351Z,8.48
2022-10-17T09:11:06.228Z,10.20
2022-10-17T09:13:55.057Z,9.32
2022-10-17T09:16:54.366Z,8.73
2022-10-17T09:19:26.503Z,12.43
2022-10-17T09:22:00.734Z,9.75
2022-10-17T09:24:48.224Z,8.95
2022-10-17T09:27:23.785Z,8.60
2022-10-17T09:29:54.707Z,7.38
2022-10-17T09:32:24.718Z,7.70
2022-10-17T09:34:53.250Z,11.40
2022-10-17T09:37:25.378Z,8.38
2022-10-17T09:39:51.837Z,9.63
2022-10-17T09:42:21.684Z,9.00
2022-10-17T09:45:12.095Z,7.43
2022-10-17T09:47:43.481Z,10.45
2022-10-17T09:50:27.118Z,6.80
2022-10-17T09:52:55.773Z,11.13
2022-10-17T09:55:25.313Z,8.90
2022-10-17T09:57:58.710Z,11.50
2022-10-17T10:00:30.843Z,9.77
2022-10-17T10:03:20.702Z,7.70
2022-10-17T10:06:13.107Z,8.82
2022-10-17T10:08:52.484Z,7.43
2022-10-17T10:11:24.621Z,11.13
2022-10-17T10:13:51.892Z,9.73
2022-10-17T10:16:30.706Z,9.77
2022-10-17T10:18:57.822Z,9.65
2022-10-17T10:21:26.863Z,8.05
2022-10-17T10:24:04.510Z,8.17
2022-10-17T10:26:44.473Z,8.95
2022-10-17T10:29:32.249Z,9.52
2022-10-17T10:32:20.298Z,7.30
2022-10-17T10:34:54.532Z,7.60
2022-10-17T10:37:37.200Z,7.30
2022-10-17T10:40:18.508Z,7.53
2022-10-17T10:42:49.126Z,7.32
2022-10-17T10:45:47.838Z,8.63
2022-10-17T10:48:19.981Z,7.13
2022-10-17T10:50:53.756Z,6.70
2022-10-17T10:54:14.513Z,6.15
2022-10-17T10:56:44.842Z,5.88
2022-10-17T10:59:20.595Z,6.78
2022-10-17T11:02:12.454Z,8.05
2022-10-17T11:04:47.680Z,7.03
2022-10-17T11:07:20.123Z,6.60
2022-10-17T11:09:54.862Z,5.93
2022-10-17T11:12:27.640Z,6.95
2022-10-17T11:15:03.793Z,5.85
2022-10-17T11:17:59.949Z,5.23
2022-10-17T11:20:35.496Z,7.53
2022-10-17T11:23:19.704Z,5.60
2022-10-17T11:25:50.113Z,5.95
2022-10-17T11:28:21.655Z,4.88
2022-10-17T11:31:07.934Z,6.80
2022-10-17T11:33:45.802Z,6.82
2022-10-17T11:36:14.675Z,4.78
2022-10-17T11:39:18.632Z,7.32
2022-10-17T11:41:55.224Z,6.80
2022-10-17T11:44:36.633Z,6.93
2022-10-17T11:47:18.279Z,5.80
2022-10-17T11:49:51.447Z,5.68
2022-10-17T11:55:29.335Z,6.95
2022-10-17T11:58:25.058Z,7.90
2022-10-17T12:01:10.475Z,8.98
2022-10-17T12:03:49.736Z,7.55
2022-10-17T12:06:25.827Z,5.90
2022-10-17T12:09:06.464Z,7.22
2022-10-17T12:11:45.680Z,5.30
2022-10-17T12:14:37.757Z,5.95
2022-10-17T12:17:06.908Z,5.80
2022-10-17T12:19:37.721Z,6.55
2022-10-17T12:22:22.650Z,5.85
2022-10-17T12:25:02.147Z,6.63
2022-10-17T12:27:46.308Z,7.13
2022-10-17T12:30:13.033Z,8.10
2022-10-17T12:33:06.109Z,6.32
2022-10-17T12:35:34.648Z,6.60
2022-10-17T12:38:13.773Z,5.40
2022-10-17T12:40:48.534Z,4.78
2022-10-17T12:43:15.346Z,5.18
2022-10-17T12:45:44.493Z,6.88
2022-10-17T12:48:10.936Z,3.33
2022-10-17T12:54:11.837Z,3.20
2022-10-17T12:56:49.731Z,3.15
2022-10-17T12:59:27.762Z,3.47
2022-10-17T13:01:58.646Z,4.28
2022-10-17T13:04:26.580Z,7.67
2022-10-17T13:06:56.833Z,3.85
2022-10-17T13:09:33.136Z,2.63
2022-10-17T13:12:06.327Z,4.35
2022-10-17T13:14:34.068Z,3.95
2022-10-17T13:17:03.041Z,4.93
2022-10-17T13:19:42.695Z,3.25
2022-10-17T13:22:20.063Z,6.13
2022-10-17T13:24:47.716Z,4.10
2022-10-17T13:27:27.823Z,3.55
2022-10-17T13:29:59.125Z,2.70
2022-10-17T13:32:36.044Z,4.70
2022-10-17T13:35:14.256Z,5.35
2022-10-17T13:37:50.245Z,6.18
2022-10-17T13:40:49.464Z,3.35
2022-10-17T13:43:24.320Z,4.33
2022-10-17T13:46:19.166Z,4.53
2022-10-17T13:48:50.516Z,4.82
2022-10-17T13:51:17.325Z,4.28
2022-10-17T13:53:44.497Z,3.70
2022-10-17T13:56:28.328Z,4.43
2022-10-17T13:59:17.316Z,4.75
2022-10-17T14:01:43.849Z,5.05
2022-10-17T14:04:19.459Z,5.72
2022-10-17T14:06:49.707Z,7.47
2022-10-17T14:09:28.881Z,4.93
2022-10-17T14:12:00.579Z,4.97
2022-10-17T14:14:28.172Z,5.90
2022-10-17T14:16:54.983Z,6.70
2022-10-17T14:19:28.763Z,6.65
2022-10-17T14:22:14.017Z,8.40
2022-10-17T14:24:42.132Z,5.68
2022-10-17T14:27:34.881Z,6.30
2022-10-17T14:30:51.644Z,6.80
2022-10-17T14:33:26.617Z,7.88
2022-10-17T14:35:55.659Z,5.90
2022-10-17T14:38:22.899Z,7.72
2022-10-17T14:41:20.934Z,8.20
2022-10-17T14:43:53.986Z,6.75
2022-10-17T14:46:20.352Z,8.18
2022-10-17T14:48:52.715Z,8.10
2022-10-17T14:51:19.099Z,9.35
2022-10-17T14:54:05.793Z,10.65
2022-10-17T14:56:43.121Z,9.15
2022-10-17T14:59:21.416Z,8.57
2022-10-17T15:01:52.151Z,7.43
2022-10-17T15:04:18.789Z,8.68
2022-10-17T15:06:45.255Z,7.75
2022-10-17T15:09:12.314Z,7.97
2022-10-17T15:11:38.985Z,6.03
2022-10-17T15:14:05.369Z,9.77
2022-10-17T15:16:33.572Z,10.00
2022-10-17T15:19:00.779Z,9.15
2022-10-17T15:21:39.202Z,8.85
2022-10-17T15:24:07.104Z,9.38
2022-10-17T15:26:34.824Z,9.20
2022-10-17T15:29:01.771Z,7.82
2022-10-17T15:31:31.132Z,9.15
2022-10-17T15:33:57.663Z,8.73
2022-10-17T15:36:29.984Z,4.90
2022-10-17T15:39:01.601Z,9.97
2022-10-17T15:41:30.548Z,7.00
2022-10-17T15:43:57.929Z,7.60
2022-10-17T15:46:26.692Z,7.85
2022-10-17T15:48:54.758Z,7.55
2022-10-17T15:51:21.999Z,7.53
2022-10-17T15:53:48.755Z,9.38
2022-10-17T15:56:36.271Z,7.82
2022-10-17T15:59:05.271Z,9.57
2022-10-17T16:01:33.380Z,6.63
2022-10-17T16:04:00.043Z,6.43
2022-10-17T16:06:26.894Z,11.50
2022-10-17T16:08:53.264Z,9.52
2022-10-17T16:11:33.278Z,7.72
2022-10-17T16:14:01.978Z,9.40
2022-10-17T16:16:29.096Z,7.10
2022-10-17T16:18:55.540Z,6.18
2022-10-17T16:21:26.278Z,9.00
2022-10-17T16:23:53.057Z,10.85
2022-10-17T16:26:19.654Z,5.63
2022-10-17T16:28:46.548Z,8.93
2022-10-17T16:31:21.873Z,7.53
2022-10-17T16:33:50.268Z,9.65
2022-10-17T16:36:17.378Z,8.13
2022-10-17T16:38:44.412Z,9.00
2022-10-17T16:41:23.707Z,7.60
2022-10-17T16:43:51.764Z,7.30
2022-10-17T16:46:19.235Z,9.27
2022-10-17T16:48:46.359Z,7.57
2022-10-17T16:51:14.646Z,7.53
2022-10-17T16:53:43.823Z,9.03
2022-10-17T16:56:21.540Z,7.88
2022-10-17T16:58:48.945Z,6.90
2022-10-17T17:01:20.940Z,6.75
2022-10-17T17:03:47.872Z,7.88
2022-10-17T17:06:20.854Z,6.97
2022-10-17T17:08:47.489Z,6.47
2022-10-17T17:11:15.734Z,4.72
2022-10-17T17:13:42.792Z,6.72
2022-10-17T17:16:12.958Z,5.68
2022-10-17T17:18:39.896Z,5.00
2022-10-17T17:21:07.816Z,6.55
2022-10-17T17:23:36.346Z,6.03
2022-10-17T17:26:05.889Z,4.78
2022-10-17T17:28:33.704Z,6.25
2022-10-17T17:31:00.698Z,6.43
2022-10-17T17:33:29.741Z,4.53
2022-10-17T17:35:57.664Z,6.32
2022-10-17T17:38:24.331Z,6.07
2022-10-17T17:40:51.380Z,4.15
2022-10-17T17:43:18.425Z,5.30
2022-10-17T17:45:44.800Z,5.05
2022-10-17T17:48:12.221Z,6.70
2022-10-17T17:50:40.519Z,5.10
2022-10-17T17:53:08.388Z,6.97
2022-10-17T17:55:35.643Z,6.30
2022-10-17T17:58:02.934Z,7.68
2022-10-17T18:00:29.453Z,8.98
2022-10-17T18:02:56.409Z,6.18
2022-10-17T18:05:23.422Z,6.43
2022-10-17T18:07:49.796Z,6.33
2022-10-17T18:10:16.203Z,8.35
2022-10-17T18:12:42.879Z,8.05
2022-10-17T18:15:09.660Z,6.13
2022-10-17T18:17:36.074Z,7.78
2022-10-17T18:20:03.414Z,8.53
2022-10-17T18:22:29.928Z,9.52
2022-10-17T18:24:56.474Z,7.93
2022-10-17T18:27:23.106Z,9.73
2022-10-17T18:29:50.396Z,9.68
2022-10-17T18:32:17.140Z,9.40
2022-10-17T18:34:43.467Z,7.65
2022-10-17T18:37:09.839Z,10.55
2022-10-17T18:39:36.248Z,7.90
2022-10-17T18:42:02.703Z,11.30
2022-10-17T18:44:29.238Z,9.67
2022-10-17T18:46:58.505Z,5.75
2022-10-17T18:49:27.875Z,8.85
2022-10-17T18:51:54.280Z,6.90
2022-10-17T18:54:21.969Z,7.53
2022-10-17T18:56:52.995Z,9.20
2022-10-17T18:59:20.720Z,8.70
2022-10-17T19:01:47.929Z,9.00
2022-10-17T19:04:14.938Z,9.15
2022-10-17T19:06:43.333Z,10.48
2022-10-17T19:09:11.722Z,7.83
2022-10-17T19:11:38.962Z,8.77
2022-10-17T19:14:13.208Z,9.35
2022-10-17T19:16:48.763Z,10.85
2022-10-17T19:19:21.041Z,11.85
2022-10-17T19:21:48.300Z,10.43
2022-10-17T19:24:17.538Z,10.45
2022-10-17T19:26:44.952Z,12.15
2022-10-17T19:29:15.765Z,8.27
2022-10-17T19:31:44.341Z,11.80
2022-10-17T19:34:12.023Z,9.97
2022-10-17T19:36:38.927Z,11.30
2022-10-17T19:39:08.516Z,8.20
2022-10-17T19:41:36.344Z,10.45
2022-10-17T19:44:03.046Z,10.98
2022-10-17T19:46:30.781Z,14.27
2022-10-17T19:48:57.473Z,12.82
2022-10-17T19:51:24.825Z,13.88
2022-10-17T19:53:52.415Z,10.10
2022-10-17T19:56:21.077Z,11.38
2022-10-17T19:58:48.945Z,11.07
2022-10-17T20:01:18.935Z,11.90
2022-10-17T20:03:45.951Z,10.43
2022-10-17T20:06:12.895Z,12.05
2022-10-17T20:08:40.045Z,10.60
2022-10-17T20:11:08.903Z,13.87
2022-10-17T20:13:36.462Z,12.65
2022-10-17T20:16:04.507Z,14.82
2022-10-17T20:18:30.975Z,13.30
2022-10-17T20:21:03.833Z,14.00
2022-10-17T20:23:30.223Z,14.70
2022-10-17T20:26:08.062Z,16.23
2022-10-17T20:28:40.005Z,12.65
2022-10-17T20:31:08.535Z,16.23
2022-10-17T20:33:34.881Z,15.98
2022-10-17T20:36:05.006Z,15.40
2022-10-17T20:38:31.820Z,14.35
2022-10-17T20:41:05.313Z,18.25
2022-10-17T20:43:32.347Z,12.95
2022-10-17T20:46:04.796Z,18.17
2022-10-17T20:48:42.593Z,18.23
2022-10-17T20:51:10.750Z,14.88
2022-10-17T20:53:37.863Z,13.82
2022-10-17T20:56:07.316Z,16.42
2022-10-17T20:58:34.243Z,17.02
2022-10-17T21:01:10.649Z,12.83
2022-10-17T21:03:41.026Z,15.23
2022-10-17T21:06:10.673Z,14.38
2022-10-17T21:08:37.060Z,16.65
2022-10-17T21:11:12.152Z,13.15
2022-10-17T21:13:38.938Z,15.50
2022-10-17T21:16:11.785Z,17.58
2022-10-17T21:18:38.805Z,18.33
2022-10-17T21:21:11.420Z,14.63
2022-10-17T21:23:39.461Z,15.43
2022-10-17T21:26:08.796Z,12.97
2022-10-17T21:28:39.340Z,13.73
2022-10-17T21:31:09.654Z,13.80
2022-10-17T21:33:36.337Z,14.75
2022-10-17T21:36:03.280Z,12.65
2022-10-17T21:38:29.752Z,13.80
2022-10-17T21:40:56.222Z,14.50
2022-10-17T21:43:22.884Z,15.52
2022-10-17T21:45:49.186Z,14.38
2022-10-17T21:48:15.589Z,14.77
2022-10-17T21:50:42.310Z,14.07
2022-10-17T21:53:08.803Z,13.50
2022-10-17T21:55:38.317Z,15.18
2022-10-17T21:58:05.025Z,15.48
2022-10-17T22:00:31.344Z,17.60
2022-10-17T22:02:57.781Z,15.10
2022-10-17T22:05:24.182Z,15.55
2022-10-17T22:07:50.515Z,14.85
2022-10-17T22:10:16.979Z,13.10
2022-10-17T22:12:43.321Z,16.83
2022-10-17T22:15:09.842Z,17.40
2022-10-17T22:17:36.272Z,16.35
2022-10-17T22:20:02.756Z,15.05
2022-10-17T22:22:30.254Z,15.77
2022-10-17T22:24:56.598Z,14.75
2022-10-17T22:27:22.925Z,13.98
2022-10-17T22:29:49.245Z,14.35
2022-10-17T22:32:19.985Z,16.77
2022-10-17T22:34:48.898Z,14.85
2022-10-17T22:37:15.302Z,13.05
2022-10-17T22:39:41.786Z,15.27
2022-10-17T22:42:08.150Z,16.65
2022-10-17T22:44:34.475Z,17.33
2022-10-17T22:47:00.865Z,14.60
2022-10-17T22:49:27.204Z,16.92
2022-10-17T22:51:53.625Z,14.57
2022-10-17T22:54:19.978Z,15.25
2022-10-17T22:56:46.619Z,15.75
2022-10-17T22:59:12.999Z,13.43
2022-10-17T23:01:39.560Z,14.35
2022-10-17T23:04:05.997Z,14.30
2022-10-17T23:06:32.418Z,15.75
2022-10-17T23:08:58.831Z,11.75
2022-10-17T23:11:25.217Z,13.50
2022-10-17T23:13:51.736Z,11.40
2022-10-17T23:16:18.246Z,11.27
2022-10-17T23:18:44.673Z,12.55
2022-10-17T23:21:11.315Z,12.18
2022-10-17T23:23:37.669Z,14.30
2022-10-17T23:26:10.306Z,11.98
2022-10-17T23:28:37.163Z,15.20
2022-10-17T23:31:16.855Z,18.98
2022-10-17T23:33:45.045Z,15.75
2022-10-17T23:36:14.035Z,13.60
2022-10-17T23:38:41.963Z,12.95
2022-10-17T23:41:08.940Z,13.73
2022-10-17T23:43:35.934Z,17.65
2022-10-17T23:46:03.027Z,12.18
2022-10-17T23:48:29.832Z,11.82
2022-10-17T23:50:57.075Z,13.68
2022-10-17T23:53:24.494Z,17.20
2022-10-17T23:55:51.159Z,14.70
2022-10-17T23:58:17.753Z,17.10
